createdAt,value
2022-09-07T02:50:57.148Z,72.77
2022-09-07T02:51:57.737Z,72.87
2022-09-07T03:23:10.300Z,75.52
2022-09-07T03:24:11.399Z,75.62
2022-09-07T03:25:11.490Z,75.62
2022-09-07T03:26:11.586Z,75.62
2022-09-07T03:27:11.658Z,75.52
2022-09-07T03:28:11.760Z,75.42
2022-09-07T03:29:11.807Z,75.38
2022-09-07T03:30:11.887Z,75.29
2022-09-07T03:31:12.048Z,75.18
2022-09-07T03:32:12.067Z,75.09
2022-09-07T03:33:12.156Z,75.09
2022-09-07T03:34:12.234Z,74.95
2022-09-07T03:35:14.255Z,74.95
2022-09-07T03:57:14.256Z,76.12
2022-09-07T03:58:15.277Z,76.12
2022-09-07T04:07:45.195Z,76.03
2022-09-07T04:08:46.796Z,76.03
2022-09-07T04:12:27.281Z,76.03
2022-09-07T04:13:28.290Z,75.92
2022-09-07T04:56:54.709Z,76.50
2022-09-07T04:57:55.760Z,76.40
2022-09-07T04:58:55.861Z,76.50
2022-09-07T04:59:55.894Z,76.50
2022-09-07T05:00:56.059Z,76.46
2022-09-07T05:01:56.067Z,76.26
2022-09-07T05:02:56.136Z,75.96
2022-09-07T05:03:56.225Z,75.86
2022-09-07T05:04:59.460Z,75.82
2022-09-07T05:05:56.407Z,75.72
2022-09-07T05:06:56.475Z,75.62
2022-09-07T05:07:56.550Z,75.52
2022-09-07T05:08:56.623Z,75.32
2022-09-07T05:09:56.709Z,75.12
2022-09-07T05:27:41.810Z,75.90
2022-09-07T05:28:42.920Z,75.99
2022-09-07T05:31:43.214Z,76.20
2022-09-07T05:32:43.289Z,76.06
2022-09-07T05:34:43.405Z,75.86
2022-09-07T05:35:43.500Z,75.76
2022-09-07T05:36:43.633Z,75.72
2022-09-07T05:37:43.677Z,75.72
2022-09-07T05:38:43.739Z,75.72
2022-09-07T05:39:43.915Z,75.62
2022-09-07T05:40:43.962Z,75.42
2022-09-07T05:41:44.024Z,75.22
2022-09-07T05:45:40.720Z,75.52
2022-09-07T06:03:28.831Z,76.36
2022-09-07T06:04:29.822Z,76.36
2022-09-07T06:05:31.099Z,76.16
2022-09-07T06:06:30.096Z,76.06
2022-09-07T06:07:30.068Z,75.72
2022-09-07T06:08:30.277Z,75.42
2022-09-07T06:09:30.774Z,75.32
2022-09-07T06:10:45.741Z,75.32
2022-09-07T06:11:30.405Z,75.18
2022-09-07T06:12:30.469Z,75.18
2022-09-07T06:13:30.661Z,75.09
2022-09-07T06:14:30.623Z,74.88
2022-09-07T06:15:30.683Z,74.68
2022-09-07T06:16:30.799Z,74.44
2022-09-07T06:24:51.362Z,73.27
2022-09-07T06:43:46.226Z,75.68
2022-09-07T06:44:47.003Z,75.89
2022-09-07T06:45:47.200Z,75.99
2022-09-07T06:47:02.810Z,75.99
2022-09-07T06:47:47.296Z,75.99
2022-09-07T06:48:47.356Z,76.09
2022-09-07T06:49:47.428Z,76.09
2022-09-07T06:50:47.514Z,76.05
2022-09-07T06:51:47.569Z,76.05
2022-09-07T06:53:48.092Z,76.15
2022-09-07T06:55:03.154Z,76.05
2022-09-07T06:55:47.854Z,76.15
2022-09-07T06:56:47.944Z,76.15
2022-09-07T06:57:48.060Z,76.21
2022-09-07T06:58:48.123Z,76.21
2022-09-07T06:59:48.227Z,76.21
2022-09-07T07:00:48.321Z,76.32
2022-09-07T07:01:48.362Z,76.21
2022-09-07T07:02:48.497Z,76.21
2022-09-07T07:03:48.493Z,76.12
2022-09-07T07:04:48.583Z,76.12
2022-09-07T07:05:48.665Z,76.12
2022-09-07T07:06:48.775Z,76.12
2022-09-07T07:07:48.879Z,76.12
2022-09-07T07:08:48.939Z,76.12
2022-09-07T07:09:49.025Z,76.02
2022-09-07T07:10:49.113Z,76.02
2022-09-07T07:11:49.201Z,76.12
2022-09-07T07:12:49.338Z,75.92
2022-09-07T07:13:49.375Z,76.02
2022-09-07T07:14:49.500Z,75.92
2022-09-07T07:15:49.551Z,75.92
2022-09-07T07:16:49.804Z,76.02
2022-09-07T07:17:58.234Z,76.12
2022-09-07T07:18:49.814Z,76.21
2022-09-07T07:19:49.901Z,76.21
2022-09-07T07:20:49.954Z,76.12
2022-09-07T07:22:10.851Z,76.12
2022-09-07T07:22:59.945Z,76.12
2022-09-07T07:23:50.204Z,76.02
2022-09-07T07:24:50.295Z,76.12
2022-09-07T07:25:50.407Z,76.12
2022-09-07T07:26:50.507Z,76.12
2022-09-07T07:27:50.841Z,76.21
2022-09-07T07:29:06.060Z,76.32
2022-09-07T07:29:50.725Z,76.32
2022-09-07T07:30:50.806Z,76.21
2022-09-07T07:31:50.891Z,76.32
2022-09-07T07:32:50.999Z,76.42
2022-09-07T07:33:51.087Z,76.52
2022-09-07T07:34:51.160Z,76.62
2022-09-07T07:35:51.191Z,76.62
2022-09-07T07:36:51.377Z,76.62
2022-09-07T07:37:51.553Z,76.72
2022-09-07T07:41:56.570Z,76.82
2022-09-07T07:42:51.818Z,76.62
2022-09-07T07:43:51.905Z,76.72
2022-09-07T07:45:56.680Z,76.72
2022-09-07T07:46:52.201Z,76.62
2022-09-07T07:47:52.265Z,76.82
2022-09-07T07:48:52.307Z,76.82
2022-09-07T07:50:30.642Z,76.72
2022-09-07T07:50:52.577Z,76.21
2022-09-07T07:53:41.201Z,76.32
2022-09-07T07:53:52.703Z,76.21
2022-09-07T07:54:52.815Z,76.32
2022-09-07T07:55:52.888Z,76.32
2022-09-07T07:56:52.975Z,76.42
2022-09-07T07:57:53.109Z,76.38
2022-09-07T08:06:23.521Z,77.26
2022-09-07T08:18:16.104Z,78.40
2022-09-07T08:19:17.108Z,78.30
2022-09-07T08:20:17.131Z,78.30
2022-09-07T08:21:17.221Z,78.20
2022-09-07T08:22:17.289Z,78.16
2022-09-07T08:23:17.353Z,78.46
2022-09-07T08:24:17.456Z,78.36
2022-09-07T08:25:17.508Z,78.16
2022-09-07T08:26:17.631Z,78.03
2022-09-07T08:27:17.687Z,77.92
2022-09-07T08:28:17.755Z,77.92
2022-09-07T08:29:17.819Z,77.72
2022-09-07T08:30:17.924Z,77.52
2022-09-07T09:21:38.671Z,78.53
2022-09-07T09:22:39.688Z,78.53
2022-09-07T09:23:39.818Z,78.59
2022-09-07T09:24:39.778Z,78.69
2022-09-07T09:25:39.884Z,78.69
2022-09-07T09:26:40.029Z,78.59
2022-09-07T09:27:40.025Z,78.45
2022-09-07T09:28:40.084Z,78.35
2022-09-07T09:29:40.187Z,78.35
2022-09-07T09:30:40.290Z,78.15
2022-09-07T09:31:40.558Z,78.11
2022-09-07T09:32:40.516Z,78.02
2022-09-07T09:33:40.567Z,77.91
2022-09-07T09:34:40.814Z,77.81
2022-09-07T09:35:40.724Z,77.91
2022-09-07T09:36:40.818Z,77.87
2022-09-07T09:37:40.874Z,77.98
2022-09-07T09:38:41.004Z,77.98
2022-09-07T10:00:16.303Z,78.61
2022-09-07T10:01:28.473Z,78.58
2022-09-07T10:04:16.525Z,78.08
2022-09-07T10:05:13.266Z,77.78
2022-09-07T10:10:19.812Z,77.67
2022-09-07T10:11:21.100Z,77.67
2022-09-07T10:12:21.035Z,77.78
2022-09-07T10:13:20.959Z,77.67
2022-09-07T10:14:21.150Z,77.74
2022-09-07T10:26:16.745Z,78.58
2022-09-07T10:27:17.654Z,78.78
2022-09-07T11:22:10.497Z,71.92
2022-09-07T11:37:56.276Z,71.22
2022-09-07T12:18:25.755Z,68.29
2022-09-07T12:19:26.672Z,67.86
2022-09-07T12:40:00.717Z,68.13
2022-09-07T13:07:29.509Z,64.21
2022-09-07T13:08:30.570Z,64.41
2022-09-07T13:09:30.719Z,64.31
2022-09-07T13:16:25.112Z,63.71
2022-09-07T13:25:11.745Z,62.59
2022-09-07T13:26:11.454Z,62.59
2022-09-07T13:27:11.570Z,62.59
2022-09-07T13:28:11.666Z,61.99
2022-09-07T13:29:11.987Z,61.96
2022-09-07T13:30:11.922Z,62.15
2022-09-07T13:33:35.318Z,60.66
2022-09-07T13:34:36.085Z,60.86
2022-09-07T13:35:36.285Z,61.16
2022-09-07T13:36:36.416Z,61.06
2022-09-07T13:37:36.295Z,60.53
2022-09-07T14:01:02.338Z,64.87
2022-09-07T14:02:03.301Z,64.87
2022-09-07T14:03:03.453Z,64.58
2022-09-07T14:36:17.805Z,61.96
2022-09-07T15:20:48.413Z,61.96
2022-09-07T15:21:49.459Z,61.96
2022-09-07T15:22:49.531Z,61.96
2022-09-07T15:23:49.690Z,61.85
2022-09-07T15:24:49.659Z,61.83
2022-09-07T15:25:50.981Z,61.83
2022-09-07T15:27:05.240Z,61.72
2022-09-07T15:27:49.948Z,61.72
2022-09-07T15:29:50.084Z,61.53
2022-09-07T15:31:40.534Z,61.50
2022-09-07T15:32:02.290Z,61.60
2022-09-07T15:32:50.380Z,61.40
2022-09-07T15:33:50.379Z,61.20
2022-09-07T15:34:50.484Z,61.20
2022-09-07T15:35:50.515Z,61.30
2022-09-07T15:36:50.602Z,61.17
2022-09-07T15:38:59.474Z,61.17
2022-09-07T15:39:04.510Z,61.37
2022-09-07T15:39:50.946Z,61.57
2022-09-07T15:41:10.873Z,61.87
2022-09-07T15:41:51.624Z,62.07
2022-09-07T15:43:19.655Z,62.07
2022-09-07T15:43:51.246Z,61.87
2022-09-07T15:44:51.339Z,61.64
2022-09-07T15:45:51.567Z,61.54
2022-09-07T15:47:53.304Z,61.24
2022-09-07T15:48:51.688Z,60.84
2022-09-07T15:49:53.897Z,60.74
2022-09-07T15:50:53.932Z,60.84
2022-09-07T15:52:07.398Z,60.94
2022-09-07T15:52:52.082Z,60.94
2022-09-07T15:54:11.422Z,61.04
2022-09-07T15:54:52.220Z,61.04
2022-09-07T15:55:52.302Z,60.94
2022-09-07T15:58:02.178Z,60.74
2022-09-07T15:58:52.550Z,60.84
2022-09-07T15:59:52.629Z,60.64
2022-09-07T16:01:51.620Z,60.74
2022-09-07T16:01:57.060Z,60.84
2022-09-07T16:03:09.150Z,60.77
2022-09-07T16:03:53.073Z,60.77
2022-09-07T16:04:53.183Z,60.68
2022-09-07T16:05:53.252Z,60.57
2022-09-07T16:06:53.216Z,60.68
2022-09-07T16:08:53.405Z,61.07
2022-09-07T16:09:53.530Z,61.07
2022-09-07T16:10:54.267Z,61.17
2022-09-07T16:11:54.027Z,61.37
2022-09-07T16:13:02.473Z,61.47
2022-09-07T16:13:53.831Z,61.57
2022-09-07T16:14:56.373Z,61.67
2022-09-07T16:15:53.988Z,61.67
2022-09-07T16:17:54.310Z,61.67
2022-09-07T16:18:54.269Z,61.80
2022-09-07T16:19:54.305Z,61.80
2022-09-07T16:20:54.388Z,61.69
2022-09-07T16:21:57.575Z,61.80
2022-09-07T16:23:54.647Z,62.10
2022-09-07T16:24:54.727Z,62.10
2022-09-07T16:25:54.819Z,62.19
2022-09-07T16:26:54.931Z,62.19
2022-09-07T16:27:54.983Z,62.29
2022-09-07T16:28:55.060Z,62.29
2022-09-07T16:29:55.176Z,62.19
2022-09-07T16:30:56.221Z,62.19
2022-09-07T16:32:55.502Z,61.80
2022-09-07T16:33:55.499Z,61.80
2022-09-07T16:34:55.584Z,61.90
2022-09-07T16:35:55.668Z,61.90
2022-09-07T16:36:55.744Z,61.99
2022-09-07T16:38:55.981Z,61.99
2022-09-07T16:39:56.002Z,62.10
2022-09-07T16:40:56.068Z,62.10
2022-09-07T16:41:56.158Z,62.10
2022-09-07T16:42:56.274Z,62.19
2022-09-07T16:43:56.317Z,62.40
2022-09-07T16:46:02.635Z,62.40
2022-09-07T17:05:54.241Z,63.81
2022-09-07T17:06:55.442Z,63.81
2022-09-07T17:09:23.684Z,64.41
2022-09-07T17:45:38.364Z,68.03
2022-09-07T19:09:35.738Z,70.56
2022-09-07T19:10:36.605Z,70.56
2022-09-07T19:11:36.730Z,70.66
2022-09-07T19:12:36.711Z,70.66
2022-09-07T19:13:36.746Z,70.66
2022-09-07T19:14:36.914Z,70.53
2022-09-07T19:15:37.805Z,70.43
2022-09-07T19:16:37.163Z,70.43
2022-09-07T19:17:37.139Z,70.32
2022-09-07T19:18:37.210Z,70.32
2022-09-07T19:19:37.259Z,70.29
2022-09-07T19:20:37.314Z,70.19
2022-09-07T19:21:37.414Z,70.09
2022-09-07T19:23:54.180Z,70.09
2022-09-07T19:24:55.297Z,69.99
2022-09-07T19:25:55.350Z,69.99
2022-09-07T19:27:00.028Z,69.89
2022-09-07T19:27:55.568Z,69.89
2022-09-07T19:28:55.615Z,69.76
2022-09-07T19:29:55.739Z,69.76
2022-09-07T19:30:55.779Z,69.76
2022-09-07T19:31:55.935Z,69.76
2022-09-07T19:32:57.146Z,69.76
2022-09-07T19:33:56.109Z,69.76
2022-09-07T19:34:56.206Z,69.76
2022-09-07T19:35:56.370Z,69.76
2022-09-07T19:36:56.303Z,69.76
2022-09-07T19:37:56.417Z,69.76
2022-09-07T19:38:56.512Z,69.76
2022-09-07T19:39:56.732Z,69.76
2022-09-07T19:40:56.672Z,69.66
2022-09-07T19:41:56.767Z,69.66
2022-09-07T19:42:56.809Z,69.66
2022-09-07T19:43:56.929Z,69.66
2022-09-07T19:44:56.998Z,69.56
2022-09-07T19:45:57.072Z,69.56
2022-09-07T19:46:57.206Z,69.56
2022-09-07T19:47:57.273Z,69.56
2022-09-07T19:48:57.360Z,69.46
2022-09-07T19:49:57.476Z,69.46
2022-09-07T19:50:57.535Z,69.56
2022-09-07T19:51:57.582Z,69.46
2022-09-07T19:52:57.673Z,69.36
2022-09-07T19:53:57.777Z,68.96
2022-09-07T19:54:57.824Z,68.36
2022-09-07T19:55:57.927Z,68.26
2022-09-07T19:56:57.966Z,68.56
2022-09-07T19:57:58.041Z,68.66
2022-09-07T19:58:58.205Z,68.79
2022-09-07T19:59:58.215Z,68.89
2022-09-07T20:00:58.331Z,68.99
2022-09-07T20:01:58.367Z,68.99
2022-09-07T20:02:58.443Z,68.99
2022-09-07T20:03:58.625Z,68.69
2022-09-07T20:04:58.589Z,68.89
2022-09-07T20:05:58.677Z,68.99
2022-09-07T20:06:58.763Z,69.79
2022-09-07T20:07:58.936Z,70.49
2022-09-07T20:08:58.970Z,70.99
2022-09-07T20:09:59.025Z,70.99
2022-09-07T20:10:59.161Z,71.23
2022-09-07T20:11:59.170Z,71.33
2022-09-07T20:12:59.303Z,71.53
2022-09-07T20:13:59.377Z,71.62
2022-09-07T20:14:59.420Z,71.83
2022-09-07T20:15:59.585Z,71.92
2022-09-07T20:16:59.628Z,71.73
2022-09-07T20:17:59.702Z,72.03
2022-09-07T20:18:59.742Z,72.16
2022-09-07T20:19:59.827Z,72.23
2022-09-07T20:20:59.921Z,72.36
2022-09-07T20:22:00.035Z,72.46
2022-09-07T20:23:00.108Z,72.36
2022-09-07T20:24:00.185Z,72.46
2022-09-07T20:25:00.228Z,72.66
2022-09-07T20:26:00.310Z,72.66
2022-09-07T20:27:00.381Z,72.76
2022-09-07T20:28:00.460Z,72.86
2022-09-07T20:29:59.678Z,72.76
2022-09-07T20:31:03.073Z,72.86
2022-09-07T20:32:00.850Z,73.16
2022-09-07T20:33:00.881Z,72.86
2022-09-07T20:34:00.984Z,72.86
2022-09-07T20:35:01.034Z,72.76
2022-09-07T20:36:01.110Z,72.86
2022-09-07T20:37:01.194Z,72.86
2022-09-07T20:38:01.285Z,72.76
2022-09-07T20:39:01.390Z,72.66
2022-09-07T20:40:01.554Z,72.06
2022-09-07T20:41:01.559Z,71.96
2022-09-07T20:42:01.626Z,72.06
2022-09-07T20:43:01.714Z,71.69
2022-09-07T20:44:01.840Z,71.59
2022-09-07T20:45:01.882Z,71.30
2022-09-07T20:46:01.961Z,71.00
2022-09-07T20:47:02.152Z,70.89
2022-09-07T20:48:02.144Z,70.89
2022-09-07T20:49:02.258Z,70.89
2022-09-07T20:50:02.314Z,71.00
2022-09-07T20:51:02.414Z,70.89
2022-09-07T20:52:02.516Z,69.89
2022-09-07T20:53:02.559Z,69.99
2022-09-07T20:54:02.645Z,70.19
2022-09-07T20:55:02.717Z,70.19
2022-09-07T20:56:02.807Z,70.19
2022-09-07T20:57:04.144Z,70.19
2022-09-07T20:58:02.953Z,69.79
2022-09-07T20:59:03.170Z,69.49
2022-09-07T21:00:03.108Z,69.49
2022-09-07T21:01:03.387Z,69.49
2022-09-07T21:02:03.405Z,69.59
2022-09-07T21:03:03.360Z,69.69
2022-09-07T21:04:03.461Z,69.69
2022-09-07T21:05:03.490Z,69.29
2022-09-07T21:06:03.567Z,69.29
2022-09-07T21:07:03.661Z,69.19
2022-09-07T21:08:03.779Z,68.89
2022-09-07T21:09:03.839Z,69.19
2022-09-07T21:10:06.795Z,69.09
2022-09-07T21:11:03.990Z,68.79
2022-09-07T21:12:04.068Z,68.69
2022-09-07T21:13:04.146Z,68.49
2022-09-07T21:14:04.269Z,68.39
2022-09-07T21:15:04.305Z,68.19
2022-09-07T21:16:04.468Z,68.09
2022-09-07T21:17:04.486Z,68.09
2022-09-07T21:18:04.576Z,68.19
2022-09-07T21:19:04.680Z,67.69
2022-09-07T21:20:04.764Z,67.79
2022-09-07T21:21:19.417Z,67.79
2022-09-07T21:22:04.952Z,67.59
2022-09-07T21:23:05.046Z,67.49
2022-09-07T21:24:05.142Z,67.69
2022-09-07T21:25:05.226Z,67.89
2022-09-07T21:26:05.307Z,67.99
2022-09-07T21:27:05.383Z,68.19
2022-09-07T21:28:05.477Z,67.99
2022-09-07T21:29:05.582Z,68.09
2022-09-07T21:30:05.627Z,68.09
2022-09-07T21:31:05.793Z,68.09
2022-09-07T21:32:05.785Z,68.09
2022-09-07T21:33:05.865Z,68.19
2022-09-07T21:34:05.962Z,68.29
2022-09-07T21:35:06.004Z,68.29
2022-09-07T21:36:06.100Z,68.19
2022-09-07T21:37:06.194Z,68.09
2022-09-07T21:38:06.243Z,67.99
2022-09-07T21:39:06.356Z,68.09
2022-09-07T21:40:06.458Z,68.09
2022-09-07T21:41:06.490Z,68.09
2022-09-07T21:42:06.577Z,68.09
2022-09-07T21:43:06.641Z,68.19
2022-09-07T21:44:06.775Z,68.19
2022-09-07T21:45:06.882Z,68.29
2022-09-07T21:46:08.161Z,68.49
2022-09-07T21:47:07.003Z,68.59
2022-09-07T21:48:07.048Z,68.59
2022-09-07T21:49:07.110Z,68.46
2022-09-07T21:50:07.213Z,68.36
2022-09-07T21:51:07.247Z,68.36
2022-09-07T21:52:07.338Z,68.36
2022-09-07T21:53:07.407Z,68.36
2022-09-07T21:54:07.509Z,68.46
2022-09-07T21:55:07.591Z,68.36
2022-09-07T21:56:07.674Z,68.36
2022-09-07T21:57:07.773Z,68.36
2022-09-07T21:58:07.823Z,68.36
2022-09-07T21:59:07.979Z,68.46
2022-09-07T22:00:07.966Z,68.36
2022-09-07T22:01:08.120Z,68.46
2022-09-07T22:02:08.181Z,68.55
2022-09-07T22:03:08.195Z,68.66
2022-09-07T22:04:08.294Z,68.76
2022-09-07T22:05:08.372Z,68.76
2022-09-07T22:06:08.448Z,68.76
2022-09-07T22:07:08.517Z,68.76
2022-09-07T22:08:08.599Z,68.86
2022-09-07T22:09:08.693Z,68.86
2022-09-07T22:10:08.791Z,68.96
2022-09-07T22:11:08.855Z,68.96
2022-09-07T22:12:08.969Z,69.06
2022-09-07T22:13:09.015Z,69.06
2022-09-07T22:14:09.121Z,69.06
2022-09-07T22:15:09.154Z,69.06
2022-09-07T22:16:09.336Z,69.06
2022-09-07T22:17:09.313Z,69.16
2022-09-07T22:18:09.393Z,69.16
2022-09-07T22:19:09.498Z,69.16
2022-09-07T22:20:09.554Z,69.26
2022-09-07T22:21:09.642Z,69.26
2022-09-07T22:22:09.748Z,69.26
2022-09-07T22:23:09.812Z,69.26
2022-09-07T22:24:09.933Z,69.26
2022-09-07T22:25:10.009Z,69.36
2022-09-07T22:26:10.094Z,69.36
2022-09-07T22:27:10.162Z,69.46
2022-09-07T22:28:10.278Z,69.56
2022-09-07T22:29:10.326Z,69.66
2022-09-07T22:30:10.477Z,69.76
2022-09-07T22:31:10.597Z,69.86
2022-09-07T22:32:10.614Z,69.86
2022-09-07T22:33:10.705Z,69.86
2022-09-07T22:34:10.823Z,69.86
2022-09-07T22:35:10.871Z,69.86
2022-09-07T22:36:11.495Z,69.86
2022-09-07T22:37:11.047Z,69.76
2022-09-07T22:38:11.131Z,69.76
2022-09-07T22:39:11.357Z,69.76
2022-09-07T22:40:11.397Z,69.76
2022-09-07T22:41:11.386Z,69.86
2022-09-07T22:42:11.485Z,69.96
2022-09-07T22:43:11.563Z,69.96
2022-09-07T22:44:11.652Z,70.06
2022-09-07T22:45:11.740Z,70.16
2022-09-07T22:46:11.858Z,70.16
2022-09-07T22:47:11.891Z,70.26
2022-09-07T22:48:11.970Z,70.26
2022-09-07T22:49:12.062Z,70.26
2022-09-07T22:50:12.146Z,70.26
2022-09-07T22:51:12.275Z,70.26
2022-09-07T22:52:12.286Z,70.26
2022-09-07T22:53:12.359Z,70.26
2022-09-07T22:54:12.462Z,70.36
2022-09-07T22:55:12.530Z,70.36
2022-09-07T22:56:12.604Z,70.46
2022-09-07T22:57:12.686Z,70.56
2022-09-07T22:58:12.784Z,70.66
2022-09-07T22:59:12.923Z,70.66
2022-09-07T23:00:12.954Z,70.66
2022-09-07T23:01:13.031Z,70.66
2022-09-07T23:02:13.107Z,70.76
2022-09-07T23:03:13.201Z,70.76
2022-09-07T23:04:13.557Z,70.76
2022-09-07T23:05:13.416Z,70.76
2022-09-07T23:06:13.421Z,70.76
2022-09-07T23:07:13.493Z,70.86
2022-09-07T23:08:13.574Z,70.86
2022-09-07T23:09:13.651Z,70.96
2022-09-07T23:10:13.730Z,70.96
2022-09-07T23:11:13.811Z,70.96
2022-09-07T23:12:13.898Z,70.96
2022-09-07T23:13:16.684Z,70.96
2022-09-07T23:14:14.107Z,70.86
2022-09-07T23:15:14.163Z,70.86
2022-09-07T23:16:14.319Z,70.86
2022-09-07T23:17:14.336Z,70.86
2022-09-07T23:18:14.397Z,70.86
2022-09-07T23:19:14.479Z,70.86
2022-09-07T23:20:14.534Z,70.76
2022-09-07T23:21:14.611Z,70.86
2022-09-07T23:22:14.682Z,70.86
2022-09-07T23:23:14.762Z,70.96
2022-09-07T23:24:14.878Z,71.09
2022-09-07T23:25:14.891Z,71.09
2022-09-07T23:26:14.958Z,71.09
2022-09-07T23:27:15.034Z,71.09
2022-09-07T23:28:15.141Z,71.19
2022-09-07T23:29:15.214Z,71.19
2022-09-07T23:30:15.299Z,71.30
2022-09-07T23:31:15.469Z,71.30
2022-09-07T23:32:15.420Z,71.30
2022-09-07T23:33:15.532Z,71.30
2022-09-07T23:34:15.632Z,71.30
2022-09-07T23:35:16.732Z,71.30
2022-09-07T23:36:15.735Z,71.30
2022-09-07T23:37:15.845Z,71.39
2022-09-07T23:38:15.904Z,71.39
2022-09-07T23:39:16.016Z,71.39
2022-09-07T23:40:16.040Z,71.39
2022-09-07T23:41:16.169Z,71.50
2022-09-07T23:42:16.241Z,71.50
2022-09-07T23:43:16.302Z,71.50
2022-09-07T23:44:16.432Z,71.59
2022-09-07T23:45:16.498Z,71.59
2022-09-07T23:46:16.710Z,71.50
2022-09-07T23:47:16.694Z,71.50
2022-09-07T23:48:16.754Z,71.50
2022-09-07T23:49:16.892Z,71.50
2022-09-07T23:50:16.941Z,71.43
2022-09-07T23:51:22.715Z,71.43
2022-09-07T23:52:17.153Z,71.43
2022-09-07T23:53:17.192Z,71.43
2022-09-07T23:54:17.300Z,71.43
2022-09-07T23:55:17.322Z,71.63
2022-09-07T23:56:17.456Z,71.63
2022-09-07T23:57:17.529Z,71.73
2022-09-07T23:58:17.642Z,71.73
2022-09-07T23:59:17.707Z,71.83
